Time;durP1;ratioP1;P1;durP2;ratioP2;P2;SDS_P1;SDS_P2;PMS_P1;PMS_P2;Temp;Humidity;BMP_temperature;BMP_pressure;BME280_temperature;BME280_humidity;BME280_pressure;Samples;Min_cycle;Max_cycle;Signal;HPM_P1;HPM_P2
2023/10/27 00:01:11;;;;;;;10.05;4.70;;;8.60;99.90;;;;;;5131550;28;20027;-81
2023/10/27 00:03:37;;;;;;;8.18;4.53;;;8.60;99.90;;;;;;5112798;28;20363;-81
2023/10/27 00:06:03;;;;;;;7.05;4.50;;;8.50;99.90;;;;;;5131424;28;20119;-80
2023/10/27 00:08:29;;;;;;;8.15;4.40;;;8.50;99.90;;;;;;5130922;28;20059;-80
2023/10/27 00:10:54;;;;;;;7.68;4.60;;;8.40;99.90;;;;;;5113170;28;20467;-80
2023/10/27 00:13:20;;;;;;;9.32;4.75;;;8.50;99.90;;;;;;5112214;28;20461;-80
2023/10/27 00:15:46;;;;;;;10.32;5.38;;;8.40;99.90;;;;;;5112564;28;20376;-79
2023/10/27 00:18:12;;;;;;;8.55;5.68;;;8.40;99.90;;;;;;5131191;28;20023;-80
2023/10/27 00:20:38;;;;;;;10.88;5.68;;;8.40;99.90;;;;;;5131179;28;20046;-80
2023/10/27 00:23:04;;;;;;;9.00;6.10;;;8.30;99.90;;;;;;5095679;28;20027;-80
2023/10/27 00:25:30;;;;;;;9.15;5.28;;;8.40;99.90;;;;;;5130731;28;20027;-80
2023/10/27 00:27:56;;;;;;;15.70;6.00;;;8.40;99.90;;;;;;5132006;28;20028;-79
2023/10/27 00:30:22;;;;;;;13.20;5.70;;;8.30;99.90;;;;;;5132300;28;20039;-79
2023/10/27 00:32:48;;;;;;;8.95;4.88;;;8.20;99.90;;;;;;5133925;28;20149;-78
2023/10/27 00:35:14;;;;;;;9.68;5.00;;;8.20;99.90;;;;;;5132648;28;20026;-79
2023/10/27 00:37:40;;;;;;;7.88;4.55;;;8.20;99.90;;;;;;5130803;28;20174;-79
2023/10/27 00:40:07;;;;;;;7.10;4.22;;;8.20;99.90;;;;;;5131634;28;20027;-80
2023/10/27 00:42:33;;;;;;;11.32;5.75;;;8.20;99.90;;;;;;5131331;28;20037;-80
2023/10/27 00:44:59;;;;;;;7.60;4.57;;;8.10;99.90;;;;;;5131657;28;20058;-80
2023/10/27 00:47:26;;;;;;;13.45;6.28;;;8.20;99.90;;;;;;5112195;28;20544;-80
2023/10/27 00:49:54;;;;;;;10.05;5.40;;;8.00;99.90;;;;;;5131257;28;20047;-80
2023/10/27 00:52:20;;;;;;;12.48;5.32;;;8.00;99.90;;;;;;5130575;28;20321;-80
2023/10/27 00:54:47;;;;;;;9.18;4.82;;;8.10;99.90;;;;;;5131331;28;20023;-80
2023/10/27 00:57:18;;;;;;;8.27;5.10;;;8.00;99.90;;;;;;5134367;27;20015;-79
2023/10/27 00:59:44;;;;;;;9.18;4.68;;;8.00;99.90;;;;;;5139408;27;20108;-79
2023/10/27 01:02:10;;;;;;;10.70;4.90;;;8.00;99.90;;;;;;5136947;27;20027;-79
2023/10/27 01:04:37;;;;;;;15.70;6.13;;;8.00;99.90;;;;;;5139118;27;20114;-80
2023/10/27 01:07:03;;;;;;;11.00;5.53;;;8.00;99.90;;;;;;5137591;27;20112;-80
2023/10/27 01:09:29;;;;;;;10.30;5.18;;;8.00;99.90;;;;;;5121470;27;20031;-79
2023/10/27 01:11:55;;;;;;;10.82;6.13;;;8.00;99.90;;;;;;5136092;27;20031;-80
2023/10/27 01:14:22;;;;;;;10.63;6.38;;;8.10;99.90;;;;;;5133811;27;20020;-80
2023/10/27 01:16:49;;;;;;;13.60;6.22;;;8.10;99.90;;;;;;5134647;27;20403;-80
2023/10/27 01:19:15;;;;;;;16.55;6.20;;;8.00;99.90;;;;;;5135283;27;20031;-79
2023/10/27 01:21:42;;;;;;;11.55;5.88;;;8.00;99.90;;;;;;5135924;27;20063;-80
2023/10/27 01:24:08;;;;;;;12.80;5.72;;;8.00;99.90;;;;;;5139960;27;20023;-80
2023/10/27 01:26:35;;;;;;;13.75;5.82;;;7.90;99.90;;;;;;5138587;27;20023;-80
2023/10/27 01:29:01;;;;;;;14.90;5.85;;;8.00;99.90;;;;;;5134527;27;20028;-80
2023/10/27 01:31:26;;;;;;;10.20;4.53;;;8.00;99.90;;;;;;5134186;27;20321;-80
2023/10/27 01:33:52;;;;;;;7.55;4.35;;;7.90;99.90;;;;;;5115912;27;20392;-79
2023/10/27 01:36:18;;;;;;;8.63;3.92;;;7.80;99.90;;;;;;5114973;27;20023;-80
2023/10/27 01:38:43;;;;;;;7.35;4.05;;;7.80;99.90;;;;;;5134786;27;20030;-80
2023/10/27 01:41:09;;;;;;;7.47;3.97;;;7.70;99.90;;;;;;5135844;27;20031;-79
2023/10/27 01:43:35;;;;;;;8.68;4.35;;;7.70;99.90;;;;;;5137939;27;20023;-79
2023/10/27 01:46:01;;;;;;;8.95;4.22;;;7.70;99.90;;;;;;5135575;27;20366;-79
2023/10/27 01:48:26;;;;;;;10.90;4.20;;;7.70;99.90;;;;;;5136400;27;20047;-81
2023/10/27 01:50:52;;;;;;;10.10;4.50;;;7.80;99.90;;;;;;5136157;27;20042;-80
2023/10/27 01:53:18;;;;;;;10.80;4.57;;;7.70;99.90;;;;;;5133509;27;20019;-80
2023/10/27 01:55:43;;;;;;;9.98;4.80;;;7.70;99.90;;;;;;5134139;27;20027;-79
2023/10/27 01:58:09;;;;;;;10.23;4.70;;;7.70;99.90;;;;;;5133695;27;20403;-80
2023/10/27 02:00:36;;;;;;;7.30;4.53;;;7.70;99.90;;;;;;5133569;27;20038;-80
2023/10/27 02:03:01;;;;;;;10.15;4.55;;;7.60;99.90;;;;;;5134085;27;20023;-80
2023/10/27 02:05:27;;;;;;;9.77;4.15;;;7.60;99.90;;;;;;5133158;27;20077;-79
2023/10/27 02:07:53;;;;;;;7.75;4.53;;;7.60;99.90;;;;;;5133489;27;20039;-79
2023/10/27 02:10:19;;;;;;;8.43;4.22;;;7.60;99.90;;;;;;5133592;27;20039;-79
2023/10/27 02:12:45;;;;;;;7.10;3.70;;;7.50;99.90;;;;;;5138821;27;20050;-80
2023/10/27 02:15:12;;;;;;;7.45;4.30;;;7.50;99.90;;;;;;5136415;27;20142;-80
2023/10/27 02:17:39;;;;;;;10.80;4.88;;;7.50;99.90;;;;;;5141638;27;20027;-81
2023/10/27 02:20:06;;;;;;;9.63;4.72;;;7.50;99.90;;;;;;5150519;27;20471;-80
2023/10/27 02:22:32;;;;;;;12.52;4.65;;;7.60;99.90;;;;;;5135088;27;20023;-81
2023/10/27 02:24:58;;;;;;;9.45;4.65;;;7.40;99.90;;;;;;5134018;27;20023;-81
2023/10/27 02:27:23;;;;;;;8.80;4.97;;;7.50;99.90;;;;;;5133548;27;20138;-81
2023/10/27 02:29:49;;;;;;;12.45;4.47;;;7.40;99.90;;;;;;5133364;27;20451;-81
2023/10/27 02:32:15;;;;;;;10.18;4.65;;;7.30;99.90;;;;;;5133244;27;20027;-80
2023/10/27 02:34:40;;;;;;;9.38;4.07;;;7.30;99.90;;;;;;5132574;27;20038;-80
2023/10/27 02:37:06;;;;;;;10.50;4.53;;;7.30;99.90;;;;;;5132970;27;20190;-80
2023/10/27 02:39:32;;;;;;;11.82;5.00;;;7.20;99.90;;;;;;5113992;27;20037;-80
2023/10/27 02:41:57;;;;;;;9.88;5.00;;;7.20;99.90;;;;;;5133272;27;20027;-80
2023/10/27 02:44:23;;;;;;;7.88;4.30;;;7.10;99.90;;;;;;5132013;27;20111;-80
2023/10/27 02:46:49;;;;;;;10.45;4.32;;;7.10;99.90;;;;;;5132358;27;20072;-79
2023/10/27 02:49:14;;;;;;;6.95;4.10;;;7.10;99.90;;;;;;5132411;27;20427;-79
2023/10/27 02:51:40;;;;;;;9.73;4.70;;;7.10;99.90;;;;;;5131887;27;20015;-79
2023/10/27 02:54:06;;;;;;;8.40;4.07;;;7.00;99.90;;;;;;5132569;27;20052;-80
2023/10/27 02:56:32;;;;;;;7.20;4.03;;;7.10;99.90;;;;;;5132199;27;20027;-79
2023/10/27 02:58:57;;;;;;;7.32;4.10;;;7.10;99.90;;;;;;5132444;27;20023;-79
2023/10/27 03:01:23;;;;;;;5.57;4.25;;;7.10;99.90;;;;;;5132297;27;20031;-80
2023/10/27 03:03:49;;;;;;;7.20;3.92;;;7.10;99.90;;;;;;5132274;27;20054;-79
2023/10/27 03:06:15;;;;;;;8.40;4.40;;;7.10;99.90;;;;;;5132165;27;20031;-79
2023/10/27 03:08:42;;;;;;;10.40;4.55;;;7.00;99.90;;;;;;5131649;27;20355;-80
2023/10/27 03:11:08;;;;;;;8.27;4.10;;;7.10;99.90;;;;;;5132493;27;20027;-80
2023/10/27 03:13:34;;;;;;;11.38;4.47;;;7.10;99.90;;;;;;5131663;27;20079;-80
2023/10/27 03:16:00;;;;;;;10.65;4.88;;;7.10;99.90;;;;;;5135678;27;20046;-80
2023/10/27 03:18:26;;;;;;;10.23;4.38;;;7.10;99.90;;;;;;5114041;27;20106;-80
2023/10/27 03:20:56;;;;;;;11.05;4.20;;;7.10;99.90;;;;;;5132976;27;20118;-80
2023/10/27 03:23:25;;;;;;;9.82;4.55;;;7.00;99.90;;;;;;5133668;27;20019;-79
2023/10/27 03:25:52;;;;;;;8.65;4.50;;;6.90;99.90;;;;;;5135736;27;20368;-78
2023/10/27 03:28:17;;;;;;;8.98;4.75;;;6.90;99.90;;;;;;5135094;27;20049;-80
2023/10/27 03:30:44;;;;;;;8.98;4.78;;;6.90;99.90;;;;;;5135451;27;20031;-80
2023/10/27 03:33:10;;;;;;;8.27;4.47;;;6.80;99.90;;;;;;5132725;27;20038;-79
2023/10/27 03:35:40;;;;;;;8.35;4.85;;;6.80;99.90;;;;;;5131088;27;20023;-79
2023/10/27 03:38:06;;;;;;;7.57;4.85;;;6.80;99.90;;;;;;5131723;27;20103;-79
2023/10/27 03:40:31;;;;;;;7.93;4.82;;;6.80;99.90;;;;;;5131257;27;20468;-80
2023/10/27 03:42:57;;;;;;;8.60;4.72;;;6.70;99.90;;;;;;5113435;28;20027;-79
2023/10/27 03:45:23;;;;;;;8.90;4.30;;;6.70;99.90;;;;;;5131399;27;20076;-80
2023/10/27 03:47:48;;;;;;;8.75;4.45;;;6.80;99.90;;;;;;5131157;27;20320;-80
2023/10/27 03:50:15;;;;;;;10.20;4.32;;;6.80;99.90;;;;;;5131671;27;20507;-80
2023/10/27 03:52:40;;;;;;;7.22;3.80;;;6.80;99.90;;;;;;5131488;28;20452;-79
2023/10/27 03:55:07;;;;;;;8.07;4.90;;;6.70;99.90;;;;;;5131777;28;20042;-79
2023/10/27 03:57:36;;;;;;;6.53;4.22;;;6.70;99.90;;;;;;5112481;28;20466;-79
2023/10/27 04:00:04;;;;;;;9.38;4.03;;;6.70;99.90;;;;;;5131841;28;20091;-80
2023/10/27 04:02:31;;;;;;;7.35;3.63;;;6.70;99.90;;;;;;5131065;28;20031;-80
2023/10/27 04:04:56;;;;;;;6.72;3.80;;;6.70;99.90;;;;;;5132377;28;20027;-79
2023/10/27 04:07:22;;;;;;;7.00;4.28;;;6.70;99.90;;;;;;5132556;28;20031;-79
2023/10/27 04:09:48;;;;;;;8.52;4.22;;;6.60;99.90;;;;;;5132829;28;20031;-80
2023/10/27 04:12:14;;;;;;;11.23;4.07;;;6.60;99.90;;;;;;5137052;28;20103;-80
2023/10/27 04:14:40;;;;;;;8.93;4.22;;;6.60;99.90;;;;;;5135987;28;20019;-79
2023/10/27 04:17:05;;;;;;;11.13;4.53;;;6.50;99.90;;;;;;5131748;28;20047;-80
2023/10/27 04:19:31;;;;;;;9.38;4.22;;;6.60;99.90;;;;;;5130969;28;20031;-80
2023/10/27 04:21:57;;;;;;;8.63;4.10;;;6.50;99.90;;;;;;5131519;28;20110;-80
2023/10/27 04:24:23;;;;;;;10.35;4.35;;;6.50;99.90;;;;;;5131914;28;20054;-80
2023/10/27 04:26:49;;;;;;;11.43;4.80;;;6.50;99.90;;;;;;5130805;28;20050;-80
2023/10/27 04:29:15;;;;;;;8.27;5.25;;;6.60;99.90;;;;;;5131460;28;20379;-81
2023/10/27 04:31:41;;;;;;;7.97;4.63;;;6.50;99.90;;;;;;5131617;27;20095;-80
2023/10/27 04:34:07;;;;;;;8.00;4.35;;;6.60;99.90;;;;;;5137774;27;20373;-80
2023/10/27 04:36:32;;;;;;;10.68;4.85;;;6.50;99.90;;;;;;5135431;27;20027;-79
2023/10/27 04:38:58;;;;;;;7.57;3.95;;;6.50;99.90;;;;;;5118399;27;20501;-80
2023/10/27 04:41:24;;;;;;;8.73;4.28;;;6.50;99.90;;;;;;5141918;27;20064;-80
2023/10/27 04:43:49;;;;;;;8.07;4.03;;;6.50;99.90;;;;;;5137722;27;20115;-81
2023/10/27 04:46:15;;;;;;;6.38;4.03;;;6.40;99.90;;;;;;5137591;27;20076;-79
2023/10/27 04:48:41;;;;;;;7.72;4.90;;;6.50;99.90;;;;;;5139384;27;20039;-79
2023/10/27 04:51:06;;;;;;;8.88;5.05;;;6.40;99.90;;;;;;5137105;27;20034;-80
2023/10/27 04:53:32;;;;;;;9.18;4.68;;;6.40;99.90;;;;;;5134643;27;20494;-80
2023/10/27 04:55:58;;;;;;;7.40;4.00;;;6.40;99.90;;;;;;5135049;27;20076;-80
2023/10/27 04:58:24;;;;;;;11.02;4.85;;;6.40;99.90;;;;;;5134986;27;20075;-80
2023/10/27 05:00:50;;;;;;;9.77;4.68;;;6.40;99.90;;;;;;5137014;27;20047;-80
2023/10/27 05:03:17;;;;;;;9.15;4.65;;;6.40;99.90;;;;;;5138047;27;20038;-80
2023/10/27 05:05:43;;;;;;;8.30;4.22;;;6.30;99.90;;;;;;5134357;27;20057;-79
2023/10/27 05:08:08;;;;;;;6.97;4.80;;;6.30;99.90;;;;;;5134761;27;20058;-80
2023/10/27 05:10:34;;;;;;;8.93;5.13;;;6.20;99.90;;;;;;5133682;27;20023;-80
2023/10/27 05:13:00;;;;;;;8.15;4.85;;;6.20;99.90;;;;;;5135062;27;20058;-80
2023/10/27 05:15:26;;;;;;;11.98;6.00;;;6.30;99.90;;;;;;5134811;27;20393;-80
2023/10/27 05:17:52;;;;;;;11.30;4.75;;;6.20;99.90;;;;;;5133999;27;20582;-80
2023/10/27 05:20:19;;;;;;;7.18;4.65;;;6.20;99.90;;;;;;5134410;27;20128;-80
2023/10/27 05:22:44;;;;;;;9.38;5.20;;;6.20;99.90;;;;;;5134015;27;20031;-80
2023/10/27 05:25:10;;;;;;;14.02;5.65;;;6.30;99.90;;;;;;5134636;27;20379;-80
2023/10/27 05:27:36;;;;;;;10.00;5.03;;;6.30;99.90;;;;;;5133394;27;20025;-79
2023/10/27 05:30:03;;;;;;;7.72;4.53;;;6.20;99.90;;;;;;5134645;27;20031;-79
2023/10/27 05:32:29;;;;;;;11.80;6.13;;;6.20;99.90;;;;;;5134456;27;20499;-79
2023/10/27 05:34:56;;;;;;;9.48;5.20;;;6.20;99.90;;;;;;5133589;27;20026;-80
2023/10/27 05:37:21;;;;;;;10.38;5.03;;;6.20;99.90;;;;;;5134080;27;20023;-80
2023/10/27 05:39:47;;;;;;;8.98;5.53;;;6.20;99.90;;;;;;5133628;27;20369;-81
2023/10/27 05:42:14;;;;;;;7.13;4.55;;;6.20;99.90;;;;;;5134211;27;20034;-80
2023/10/27 05:44:41;;;;;;;7.35;5.05;;;6.30;99.90;;;;;;5133624;27;20074;-80
2023/10/27 05:47:07;;;;;;;7.82;5.10;;;6.30;99.90;;;;;;5133776;27;20054;-80
2023/10/27 05:49:32;;;;;;;7.20;4.32;;;6.40;99.90;;;;;;5133430;27;20097;-81
2023/10/27 05:52:02;;;;;;;7.80;4.78;;;6.40;99.90;;;;;;5133598;27;20099;-81
2023/10/27 05:54:29;;;;;;;5.95;4.00;;;6.50;99.90;;;;;;5116695;27;20379;-80
2023/10/27 05:56:55;;;;;;;13.50;6.20;;;6.50;99.90;;;;;;5133898;27;20023;-80
2023/10/27 05:59:21;;;;;;;8.45;5.85;;;6.40;99.90;;;;;;5134193;27;20042;-80
2023/10/27 06:01:48;;;;;;;9.05;5.53;;;6.50;99.90;;;;;;5132708;27;20492;-80
2023/10/27 06:04:15;;;;;;;12.20;5.70;;;6.50;99.90;;;;;;5133641;27;20038;-81
2023/10/27 06:06:40;;;;;;;9.35;5.25;;;6.50;99.90;;;;;;5132552;27;20027;-80
2023/10/27 06:09:06;;;;;;;10.05;5.18;;;6.50;99.90;;;;;;5133272;27;20042;-79
2023/10/27 06:11:32;;;;;;;8.65;5.07;;;6.60;99.90;;;;;;5133012;27;20126;-80
2023/10/27 06:13:58;;;;;;;9.27;5.63;;;6.60;99.90;;;;;;5132780;27;20076;-79
2023/10/27 06:16:24;;;;;;;11.10;4.70;;;6.60;99.90;;;;;;5133913;27;20019;-80
2023/10/27 06:18:52;;;;;;;7.50;5.53;;;6.60;99.90;;;;;;5132501;27;20034;-81
2023/10/27 06:21:18;;;;;;;10.65;5.57;;;6.70;99.90;;;;;;5115345;27;20050;-79
2023/10/27 06:23:44;;;;;;;8.75;6.05;;;6.80;99.90;;;;;;5132884;27;20065;-80
2023/10/27 06:26:10;;;;;;;9.13;5.88;;;6.80;99.90;;;;;;5133513;27;20051;-80
2023/10/27 06:28:36;;;;;;;13.35;5.50;;;6.80;99.90;;;;;;5114548;27;20032;-80
2023/10/27 06:31:05;;;;;;;10.05;4.85;;;6.90;99.90;;;;;;5133542;27;20031;-80
2023/10/27 06:33:33;;;;;;;8.43;4.82;;;6.90;99.90;;;;;;5140267;27;20129;-79
2023/10/27 06:35:59;;;;;;;7.32;5.15;;;6.90;99.90;;;;;;5126189;27;20027;-80
2023/10/27 06:38:26;;;;;;;9.65;5.13;;;6.90;99.90;;;;;;5134611;27;20023;-80
2023/10/27 06:40:51;;;;;;;10.15;5.28;;;6.90;99.90;;;;;;5132729;27;20064;-80
2023/10/27 06:43:17;;;;;;;7.97;4.80;;;6.90;99.90;;;;;;5133256;27;20519;-80
2023/10/27 06:45:43;;;;;;;9.07;5.10;;;6.90;99.90;;;;;;5132456;27;20031;-81
2023/10/27 06:48:09;;;;;;;9.70;5.70;;;6.80;99.90;;;;;;5132318;27;20066;-81
2023/10/27 06:50:35;;;;;;;10.10;4.65;;;6.70;99.90;;;;;;5132117;27;20058;-80
2023/10/27 06:53:01;;;;;;;9.20;4.85;;;6.70;99.90;;;;;;5132448;27;20027;-80
2023/10/27 06:55:26;;;;;;;8.02;4.35;;;6.70;99.90;;;;;;5131977;27;20027;-80
2023/10/27 06:57:52;;;;;;;9.05;5.20;;;6.70;99.90;;;;;;5131905;27;20038;-80
2023/10/27 07:00:18;;;;;;;10.55;5.15;;;6.70;99.90;;;;;;5132243;27;20076;-80
2023/10/27 07:02:44;;;;;;;7.72;4.50;;;6.60;99.90;;;;;;5131760;27;20023;-80
2023/10/27 07:05:13;;;;;;;6.82;4.38;;;6.60;99.90;;;;;;5132969;27;20376;-81
2023/10/27 07:07:40;;;;;;;16.85;5.97;;;6.60;99.90;;;;;;5113331;27;20031;-80
2023/10/27 07:10:06;;;;;;;12.45;5.22;;;6.60;99.90;;;;;;5113816;27;20071;-80
2023/10/27 07:12:32;;;;;;;8.55;4.93;;;6.60;99.90;;;;;;5113465;27;20019;-81
2023/10/27 07:14:57;;;;;;;8.77;5.30;;;6.50;99.90;;;;;;5132043;27;20118;-80
2023/10/27 07:17:23;;;;;;;15.18;5.15;;;6.50;99.90;;;;;;5113580;27;20157;-80
2023/10/27 07:19:49;;;;;;;14.88;4.68;;;6.60;99.90;;;;;;5131354;27;20031;-80
2023/10/27 07:22:16;;;;;;;12.95;5.28;;;6.70;99.90;;;;;;5113220;27;20031;-80
2023/10/27 07:24:42;;;;;;;12.15;5.20;;;6.70;99.90;;;;;;5131621;27;20045;-80
2023/10/27 07:27:07;;;;;;;12.48;5.15;;;6.80;99.90;;;;;;5131960;27;20451;-80
2023/10/27 07:29:33;;;;;;;11.48;5.20;;;6.80;99.90;;;;;;5131971;27;20039;-80
2023/10/27 07:31:59;;;;;;;13.30;5.70;;;6.80;99.90;;;;;;5112807;27;20035;-80
2023/10/27 07:34:25;;;;;;;9.38;5.20;;;6.80;99.90;;;;;;5131514;27;20027;-81
2023/10/27 07:36:53;;;;;;;9.38;4.43;;;6.80;99.90;;;;;;5131193;27;20027;-80
2023/10/27 07:39:19;;;;;;;15.02;6.15;;;6.80;99.90;;;;;;5112806;27;20031;-81
2023/10/27 07:41:45;;;;;;;11.15;5.13;;;6.80;99.90;;;;;;5131467;27;20463;-80
2023/10/27 07:44:10;;;;;;;13.30;5.85;;;6.80;99.90;;;;;;5131813;27;20023;-80
2023/10/27 07:46:37;;;;;;;17.77;7.43;;;7.00;99.90;;;;;;5131691;27;20140;-80
2023/10/27 07:49:03;;;;;;;10.18;5.30;;;7.10;99.90;;;;;;5130837;27;20078;-81
2023/10/27 07:51:29;;;;;;;16.33;5.95;;;7.10;99.90;;;;;;5131773;27;20065;-80
2023/10/27 07:53:56;;;;;;;13.32;6.00;;;7.20;99.90;;;;;;5130699;28;20460;-81
2023/10/27 07:56:21;;;;;;;13.63;6.03;;;7.20;99.90;;;;;;5131633;28;20059;-81
2023/10/27 07:58:47;;;;;;;18.23;6.82;;;7.30;99.90;;;;;;5131123;28;20061;-80
2023/10/27 08:01:13;;;;;;;11.43;5.70;;;7.40;99.90;;;;;;5131462;28;20027;-81
2023/10/27 08:03:39;;;;;;;15.82;6.13;;;7.40;99.90;;;;;;5131545;28;20050;-81
2023/10/27 08:06:08;;;;;;;8.77;5.25;;;7.50;99.90;;;;;;5133113;27;20102;-81
2023/10/27 08:08:37;;;;;;;11.43;4.90;;;7.50;99.90;;;;;;5135982;27;20356;-80
2023/10/27 08:11:04;;;;;;;13.18;6.57;;;7.60;99.90;;;;;;5135069;27;20050;-82
2023/10/27 08:13:31;;;;;;;10.07;5.65;;;7.70;99.90;;;;;;5135706;27;20035;-80
2023/10/27 08:15:58;;;;;;;12.65;5.75;;;7.60;99.90;;;;;;5134863;27;20153;-82
2023/10/27 08:18:24;;;;;;;11.30;5.20;;;7.70;99.90;;;;;;5143579;27;20034;-82
2023/10/27 08:20:50;;;;;;;11.10;5.20;;;7.80;99.90;;;;;;5150725;27;20027;-82
2023/10/27 08:23:16;;;;;;;8.32;4.53;;;7.90;99.90;;;;;;5141738;27;20096;-81
2023/10/27 08:25:41;;;;;;;10.45;4.97;;;8.00;99.90;;;;;;5136072;27;20067;-82
2023/10/27 08:28:08;;;;;;;10.15;5.50;;;8.10;99.90;;;;;;5135663;27;20084;-82
2023/10/27 08:30:33;;;;;;;12.77;5.25;;;8.20;99.90;;;;;;5135445;27;20038;-83
2023/10/27 08:32:59;;;;;;;12.75;5.60;;;8.20;99.90;;;;;;5134151;27;20110;-83
2023/10/27 08:35:25;;;;;;;14.52;4.90;;;8.30;99.90;;;;;;5134878;27;20065;-83
2023/10/27 08:37:51;;;;;;;11.68;5.35;;;8.40;99.90;;;;;;5134181;27;20034;-83
2023/10/27 08:40:17;;;;;;;14.52;4.95;;;8.50;99.90;;;;;;5116371;27;20029;-82
2023/10/27 08:42:49;;;;;;;11.20;5.40;;;8.50;99.90;;;;;;5135104;27;20024;-83
2023/10/27 08:45:15;;;;;;;12.85;5.55;;;8.60;99.90;;;;;;5116617;27;20088;-82
2023/10/27 08:47:42;;;;;;;13.70;5.53;;;8.70;99.90;;;;;;5116017;27;20121;-83
2023/10/27 08:50:08;;;;;;;9.80;5.05;;;8.70;99.90;;;;;;5133743;27;20043;-82
2023/10/27 08:52:34;;;;;;;10.95;5.28;;;8.80;99.90;;;;;;5134490;27;20106;-83
2023/10/27 08:55:07;;;;;;;12.98;5.22;;;8.90;99.90;;;;;;5133801;27;20106;-84
2023/10/27 08:57:34;;;;;;;10.18;4.63;;;9.00;99.90;;;;;;5116713;27;20023;-83
2023/10/27 08:59:59;;;;;;;11.10;5.40;;;9.20;99.90;;;;;;5134018;27;20034;-83
2023/10/27 09:02:32;;;;;;;15.07;5.50;;;9.30;99.90;;;;;;5134493;27;20031;-83
2023/10/27 09:05:06;;;;;;;13.38;6.05;;;9.50;99.90;;;;;;5133633;27;20019;-83
2023/10/27 09:07:35;;;;;;;9.75;5.22;;;9.50;99.90;;;;;;5135051;27;20015;-82
2023/10/27 09:10:02;;;;;;;7.65;4.47;;;9.60;99.90;;;;;;5133861;27;20031;-82
2023/10/27 09:12:30;;;;;;;13.70;5.20;;;9.70;99.90;;;;;;5134324;27;20028;-82
2023/10/27 09:15:07;;;;;;;10.52;5.57;;;9.90;99.90;;;;;;5134013;27;20027;-82
2023/10/27 09:17:52;;;;;;;9.45;4.95;;;10.00;99.90;;;;;;5133587;27;20131;-83
2023/10/27 09:20:23;;;;;;;9.00;4.78;;;10.10;99.90;;;;;;5135105;27;20092;-83
2023/10/27 09:23:01;;;;;;;14.07;6.60;;;10.20;99.90;;;;;;5134356;27;20019;-81
2023/10/27 09:25:31;;;;;;;9.77;4.90;;;10.30;99.90;;;;;;5134575;27;20030;-83
2023/10/27 09:28:01;;;;;;;11.05;5.45;;;10.30;99.90;;;;;;5133909;27;20028;-83
2023/10/27 09:30:37;;;;;;;10.73;4.75;;;10.30;99.90;;;;;;5134213;27;20031;-83
2023/10/27 09:33:12;;;;;;;12.77;4.68;;;10.40;99.90;;;;;;5133664;27;20035;-83
2023/10/27 09:35:39;;;;;;;11.48;4.18;;;10.40;99.90;;;;;;5134178;27;20027;-83
2023/10/27 09:38:05;;;;;;;14.00;6.13;;;10.40;99.90;;;;;;5133808;27;20015;-83
2023/10/27 09:40:31;;;;;;;10.10;4.20;;;10.40;99.90;;;;;;5115977;27;20038;-81
2023/10/27 09:43:01;;;;;;;14.20;6.47;;;10.40;99.90;;;;;;5133781;27;20059;-82
2023/10/27 09:45:28;;;;;;;14.15;5.15;;;10.40;99.90;;;;;;5135120;27;20110;-81
2023/10/27 09:48:05;;;;;;;8.45;4.50;;;10.50;99.90;;;;;;5133005;27;20130;-82
2023/10/27 09:50:32;;;;;;;10.10;4.40;;;10.50;99.90;;;;;;5134341;27;20047;-81
2023/10/27 09:53:00;;;;;;;10.80;5.15;;;10.60;99.90;;;;;;5133384;27;20031;-82
2023/10/27 09:55:28;;;;;;;8.90;4.60;;;10.70;99.90;;;;;;5116104;27;20031;-82
2023/10/27 09:57:55;;;;;;;8.48;4.10;;;10.90;99.90;;;;;;5115117;27;20023;-82
2023/10/27 10:00:24;;;;;;;10.13;4.43;;;10.90;99.90;;;;;;5134673;27;20023;-82
2023/10/27 10:02:50;;;;;;;12.27;4.22;;;11.00;99.90;;;;;;5132836;27;20034;-82
2023/10/27 10:05:18;;;;;;;7.20;3.88;;;11.10;99.90;;;;;;5133886;27;20054;-82
2023/10/27 10:07:44;;;;;;;9.05;3.20;;;11.20;99.90;;;;;;5133542;27;20028;-83
2023/10/27 10:10:34;;;;;;;7.93;3.00;;;11.20;99.90;;;;;;5132659;27;20039;-83
2023/10/27 10:13:03;;;;;;;8.75;3.38;;;11.30;99.90;;;;;;5132560;27;20020;-82
2023/10/27 10:15:39;;;;;;;13.82;3.58;;;11.40;99.90;;;;;;5132917;27;20099;-83
2023/10/27 10:18:07;;;;;;;11.82;3.25;;;11.40;99.90;;;;;;5132094;27;20024;-83
2023/10/27 10:21:01;;;;;;;7.78;2.50;;;11.50;99.90;;;;;;5132538;27;20043;-84
2023/10/27 10:23:40;;;;;;;7.53;2.10;;;11.50;99.90;;;;;;5132442;27;20027;-83
2023/10/27 10:26:06;;;;;;;6.82;2.25;;;11.60;99.90;;;;;;5131902;27;20027;-83
2023/10/27 10:28:40;;;;;;;7.07;2.30;;;11.60;99.90;;;;;;5131989;27;20545;-83
2023/10/27 10:31:16;;;;;;;6.82;1.90;;;11.60;99.90;;;;;;5131603;27;20035;-82
2023/10/27 10:33:48;;;;;;;5.68;2.05;;;11.70;99.90;;;;;;5132573;27;20095;-84
2023/10/27 10:36:22;;;;;;;6.65;2.10;;;11.70;99.90;;;;;;5113991;27;20106;-83
2023/10/27 10:38:55;;;;;;;7.82;2.10;;;11.70;99.90;;;;;;5132204;27;20034;-83
2023/10/27 10:41:41;;;;;;;5.65;1.90;;;11.70;99.90;;;;;;5114065;27;20076;-83
2023/10/27 10:44:11;;;;;;;9.55;2.10;;;11.80;99.90;;;;;;5098960;27;20844;-84
2023/10/27 10:46:37;;;;;;;13.30;2.03;;;11.80;99.90;;;;;;5113573;27;20027;-84
2023/10/27 10:49:03;;;;;;;8.25;1.90;;;11.90;99.90;;;;;;5131330;27;20483;-84
2023/10/27 10:51:36;;;;;;;11.02;2.42;;;11.90;99.90;;;;;;5131909;27;20027;-84
2023/10/27 10:54:08;;;;;;;9.48;1.70;;;11.90;99.90;;;;;;5114287;27;20027;-83
2023/10/27 10:56:34;;;;;;;9.55;1.98;;;12.00;99.90;;;;;;5132074;27;20023;-84
2023/10/27 10:59:03;;;;;;;8.07;1.83;;;12.00;99.90;;;;;;5132222;27;20535;-83
2023/10/27 11:01:29;;;;;;;9.13;2.25;;;12.20;99.90;;;;;;5132323;27;20129;-84
2023/10/27 11:03:56;;;;;;;6.63;1.65;;;12.20;99.90;;;;;;5113498;27;20463;-85
2023/10/27 11:06:26;;;;;;;4.60;1.27;;;12.30;99.90;;;;;;5132165;27;20019;-85
2023/10/27 11:08:52;;;;;;;15.38;2.10;;;12.40;99.90;;;;;;5131762;27;20019;-86
2023/10/27 11:11:19;;;;;;;5.28;1.77;;;12.40;99.90;;;;;;5132599;27;20039;-86
2023/10/27 11:13:50;;;;;;;6.90;2.00;;;12.40;99.90;;;;;;5113773;27;20121;-86
2023/10/27 11:16:16;;;;;;;6.57;1.42;;;12.40;99.90;;;;;;5113445;27;20420;-85
2023/10/27 11:18:44;;;;;;;8.45;1.45;;;12.40;99.90;;;;;;5132419;27;20115;-85
2023/10/27 11:21:22;;;;;;;11.77;2.05;;;12.50;99.90;;;;;;5131248;27;20126;-85
2023/10/27 11:23:49;;;;;;;6.45;1.85;;;12.60;99.90;;;;;;5132211;27;20099;-86
2023/10/27 11:26:16;;;;;;;9.50;1.73;;;12.60;99.90;;;;;;5131309;27;20029;-83
2023/10/27 11:28:43;;;;;;;9.50;1.50;;;12.70;99.90;;;;;;5131864;27;20035;-82
2023/10/27 11:31:12;;;;;;;6.47;1.77;;;12.70;99.90;;;;;;5131519;27;20057;-82
2023/10/27 11:34:11;;;;;;;8.45;1.40;;;12.70;99.90;;;;;;5131714;27;20060;-81
2023/10/27 11:36:58;;;;;;;12.57;2.05;;;12.70;99.90;;;;;;5131709;27;20030;-80
2023/10/27 11:39:24;;;;;;;11.60;1.88;;;12.80;99.90;;;;;;5131985;27;20107;-81
2023/10/27 11:42:00;;;;;;;6.72;1.60;;;12.90;99.90;;;;;;5131454;27;20061;-81
2023/10/27 11:44:26;;;;;;;6.72;1.65;;;12.90;99.90;;;;;;5113417;27;20451;-82
2023/10/27 11:46:57;;;;;;;8.40;1.55;;;13.00;99.90;;;;;;5131445;27;20479;-83
2023/10/27 11:49:24;;;;;;;9.48;1.88;;;13.00;99.90;;;;;;5130739;27;20055;-82
2023/10/27 11:51:53;;;;;;;5.63;1.40;;;13.00;99.90;;;;;;5131562;27;20074;-83
2023/10/27 11:54:19;;;;;;;5.80;1.60;;;13.10;99.90;;;;;;5132142;27;20102;-82
2023/10/27 11:56:46;;;;;;;7.90;1.55;;;13.10;99.90;;;;;;5131610;28;20363;-83
2023/10/27 11:59:12;;;;;;;8.20;1.83;;;13.10;99.90;;;;;;5113294;28;20027;-82
2023/10/27 12:01:38;;;;;;;9.48;2.15;;;13.10;99.90;;;;;;5131434;28;20059;-81
2023/10/27 12:04:10;;;;;;;9.02;1.88;;;13.10;99.90;;;;;;5141687;28;20088;-82
2023/10/27 12:06:43;;;;;;;9.57;2.07;;;13.10;99.90;;;;;;5146701;28;20079;-82
2023/10/27 12:09:11;;;;;;;11.25;2.53;;;13.10;99.90;;;;;;5146855;28;20030;-82
2023/10/27 12:11:37;;;;;;;7.18;1.83;;;13.10;99.90;;;;;;5138052;28;20038;-81
2023/10/27 12:14:03;;;;;;;9.02;1.88;;;13.10;99.90;;;;;;5132611;28;20470;-81
2023/10/27 12:16:29;;;;;;;13.25;2.30;;;13.10;99.90;;;;;;5132114;28;20023;-81
2023/10/27 12:18:56;;;;;;;6.63;2.03;;;13.20;99.90;;;;;;5131655;28;20107;-83
2023/10/27 12:21:23;;;;;;;8.93;2.03;;;13.20;99.90;;;;;;5130516;28;20027;-81
2023/10/27 12:23:48;;;;;;;6.80;1.67;;;13.20;99.90;;;;;;5131150;28;20027;-81
2023/10/27 12:26:14;;;;;;;6.03;1.80;;;13.20;99.90;;;;;;5130480;28;20016;-82
2023/10/27 12:28:40;;;;;;;8.48;1.80;;;13.30;99.90;;;;;;5131493;28;20027;-82
2023/10/27 12:31:06;;;;;;;7.75;1.73;;;13.30;99.90;;;;;;5130658;28;20103;-82
2023/10/27 12:33:32;;;;;;;6.05;1.75;;;13.40;99.90;;;;;;5130777;28;20332;-82
2023/10/27 12:36:09;;;;;;;6.32;1.67;;;13.40;99.90;;;;;;5130848;28;20026;-82
2023/10/27 12:38:35;;;;;;;7.55;2.25;;;13.40;99.90;;;;;;5131036;28;20076;-82
2023/10/27 12:41:00;;;;;;;5.38;1.75;;;13.40;99.90;;;;;;5130798;28;20027;-82
2023/10/27 12:43:26;;;;;;;6.45;2.08;;;13.40;99.90;;;;;;5131068;28;20031;-81
2023/10/27 12:45:52;;;;;;;6.95;1.95;;;13.40;99.90;;;;;;5130155;28;20051;-80
2023/10/27 12:48:18;;;;;;;9.30;2.13;;;13.40;99.90;;;;;;5129336;28;20046;-80
2023/10/27 12:50:44;;;;;;;9.18;2.40;;;13.40;99.90;;;;;;5130610;28;20091;-81